createdAt,value
2019-04-20T00:01:01.580Z,102154.92
2019-04-20T00:03:39.430Z,102156.95
2019-04-20T00:06:12.851Z,102153.09
2019-04-20T00:08:45.661Z,102155.26
2019-04-20T00:11:27.350Z,102159.03
2019-04-20T00:14:04.094Z,102156.02
2019-04-20T00:16:40.029Z,102156.02
2019-04-20T00:19:10.750Z,102158.05
2019-04-20T00:21:56.368Z,102148.16
2019-04-20T00:24:33.628Z,102149.95
2019-04-20T00:27:28.199Z,102150.88
2019-04-20T00:29:49.577Z,102150.69
2019-04-20T00:32:17.617Z,102148.98
2019-04-20T00:34:43.323Z,102150.31
2019-04-20T00:37:12.838Z,102148.14
2019-04-20T00:39:44.674Z,102144.83
2019-04-20T00:42:17.673Z,102144.73
2019-04-20T00:44:56.324Z,102148.98
2019-04-20T00:47:34.922Z,102142.21
2019-04-20T00:50:05.578Z,102145.73
2019-04-20T00:52:32.916Z,102140.98
2019-04-20T00:54:58.194Z,102141.84
2019-04-20T00:57:38.022Z,102140.14
2019-04-20T01:00:19.205Z,102140.02
2019-04-20T01:02:46.679Z,102145.92
2019-04-20T01:05:22.881Z,102137.47
2019-04-20T01:08:00.553Z,102140.26
2019-04-20T01:10:35.381Z,102136.03
2019-04-20T01:13:11.063Z,102135.69
2019-04-20T01:15:46.357Z,102129.38
2019-04-20T01:18:07.053Z,102137.30
2019-04-20T01:20:38.897Z,102138.83
2019-04-20T01:23:15.258Z,102130.71
2019-04-20T01:25:45.090Z,102131.97
2019-04-20T01:28:35.412Z,102131.55
2019-04-20T01:31:00.039Z,102133.98
2019-04-20T01:33:31.882Z,102138.50
2019-04-20T01:36:10.430Z,102140.16
2019-04-20T01:38:40.020Z,102144.31
2019-04-20T01:40:57.180Z,102144.94
2019-04-20T01:43:29.061Z,102142.98
2019-04-20T01:46:07.928Z,102135.89
2019-04-20T01:48:35.586Z,102139.67
2019-04-20T01:51:11.864Z,102136.77
2019-04-20T01:53:55.945Z,102135.67
2019-04-20T01:56:27.878Z,102132.91
2019-04-20T01:59:06.084Z,102133.97
2019-04-20T02:01:30.917Z,102138.52
2019-04-20T02:04:17.181Z,102130.14
2019-04-20T02:06:50.029Z,102134.59
2019-04-20T02:09:20.466Z,102131.92
2019-04-20T02:11:50.819Z,102131.11
2019-04-20T02:14:31.389Z,102133.25
2019-04-20T02:17:03.481Z,102132.72
2019-04-20T02:19:37.707Z,102137.02
2019-04-20T02:22:11.644Z,102128.41
2019-04-20T02:24:30.090Z,102128.81
2019-04-20T02:27:02.004Z,102134.89
2019-04-20T02:29:54.776Z,102130.00
2019-04-20T02:32:32.170Z,102138.39
2019-04-20T02:35:07.231Z,102133.72
2019-04-20T02:38:02.997Z,102137.42
2019-04-20T02:40:35.961Z,102135.48
2019-04-20T02:42:57.888Z,102134.30
2019-04-20T02:45:40.504Z,102133.30
2019-04-20T02:48:07.709Z,102130.59
2019-04-20T02:50:37.920Z,102135.09
2019-04-20T02:53:13.789Z,102133.36
2019-04-20T03:00:33.935Z,102135.66
2019-04-20T03:02:55.894Z,102145.79
2019-04-20T03:05:28.256Z,102146.13
2019-04-20T03:08:08.948Z,102141.74
2019-04-20T03:10:46.309Z,102152.95
2019-04-20T03:13:15.908Z,102150.08
2019-04-20T03:15:48.152Z,102148.60
2019-04-20T03:18:22.311Z,102148.63
2019-04-20T03:20:53.625Z,102149.23
2019-04-20T03:23:31.313Z,102145.95
2019-04-20T03:26:09.592Z,102155.49
2019-04-20T03:28:54.054Z,102161.14
2019-04-20T03:32:25.205Z,102162.27
2019-04-20T03:34:47.445Z,102171.27
2019-04-20T03:37:04.725Z,102165.03
2019-04-20T03:39:23.255Z,102168.77
2019-04-20T03:41:43.470Z,102172.14
2019-04-20T03:44:15.353Z,102178.31
2019-04-20T03:46:51.336Z,102171.16
2019-04-20T03:49:43.106Z,102181.53
2019-04-20T03:52:23.341Z,102183.04
2019-04-20T03:54:57.394Z,102186.70
2019-04-20T03:57:45.905Z,102188.26
2019-04-20T04:00:26.885Z,102184.84
2019-04-20T04:03:12.644Z,102185.73
2019-04-20T04:05:40.798Z,102183.63
2019-04-20T04:08:08.505Z,102178.78
2019-04-20T04:10:47.893Z,102181.63
2019-04-20T04:13:14.748Z,102180.72
2019-04-20T04:15:52.228Z,102183.00
2019-04-20T04:18:28.077Z,102186.75
2019-04-20T04:21:01.092Z,102179.55
2019-04-20T04:23:40.948Z,102181.46
2019-04-20T04:26:16.102Z,102188.96
2019-04-20T04:28:46.267Z,102178.31
2019-04-20T04:31:24.617Z,102186.48
2019-04-20T04:36:21.304Z,102183.34
2019-04-20T04:39:05.475Z,102182.49
2019-04-20T04:41:31.101Z,102179.66
2019-04-20T04:44:06.117Z,102171.66
2019-04-20T04:46:16.583Z,102182.84
2019-04-20T04:48:49.849Z,102181.32
2019-04-20T04:51:24.709Z,102182.92
2019-04-20T04:54:01.182Z,102183.09
2019-04-20T04:56:26.702Z,102174.84
2019-04-20T04:58:56.311Z,102183.32
2019-04-20T05:01:30.738Z,102183.56
2019-04-20T05:04:22.839Z,102176.17
2019-04-20T05:06:49.478Z,102176.39
2019-04-20T05:09:10.413Z,102177.06
2019-04-20T05:11:38.972Z,102179.55
2019-04-20T05:14:16.864Z,102180.06
2019-04-20T05:16:58.161Z,102175.59
2019-04-20T05:19:37.009Z,102171.47
2019-04-20T05:22:27.007Z,102173.30
2019-04-20T05:24:43.838Z,102174.86
2019-04-20T05:27:43.953Z,102172.05
2019-04-20T05:29:50.846Z,102172.69
2019-04-20T05:32:32.809Z,102177.87
2019-04-20T05:35:14.961Z,102178.09
2019-04-20T05:37:48.838Z,102178.52
2019-04-20T05:40:22.651Z,102177.36
2019-04-20T05:42:54.402Z,102176.88
2019-04-20T05:45:22.362Z,102175.66
2019-04-20T05:47:52.449Z,102181.98
2019-04-20T05:50:33.218Z,102177.81
2019-04-20T05:53:09.936Z,102174.88
2019-04-20T05:55:35.984Z,102178.09
2019-04-20T05:58:14.254Z,102177.33
2019-04-20T06:00:47.709Z,102181.14
2019-04-20T06:03:15.257Z,102175.12
2019-04-20T06:05:59.365Z,102186.31
2019-04-20T06:08:32.044Z,102181.81
2019-04-20T06:10:56.211Z,102179.41
2019-04-20T06:13:22.762Z,102183.63
2019-04-20T06:16:07.438Z,102182.13
2019-04-20T06:18:49.631Z,102188.67
2019-04-20T06:21:41.550Z,102185.25
2019-04-20T06:24:10.602Z,102184.52
2019-04-20T06:26:49.052Z,102183.78
2019-04-20T06:29:11.222Z,102175.48
2019-04-20T06:31:47.213Z,102185.13
2019-04-20T06:34:30.658Z,102185.45
2019-04-20T06:37:06.841Z,102181.81
2019-04-20T06:39:48.772Z,102184.44
2019-04-20T06:44:35.409Z,102177.72
2019-04-20T06:49:56.440Z,102177.70
2019-04-20T06:52:27.524Z,102178.84
2019-04-20T06:55:08.687Z,102177.00
2019-04-20T06:57:55.716Z,102176.14
2019-04-20T07:00:22.845Z,102179.72
2019-04-20T07:05:22.368Z,102171.39
2019-04-20T07:07:54.658Z,102174.55
2019-04-20T07:10:44.231Z,102176.61
2019-04-20T07:12:56.794Z,102179.75
2019-04-20T07:15:29.045Z,102170.74
2019-04-20T07:18:13.909Z,102175.27
2019-04-20T07:20:54.012Z,102189.13
2019-04-20T07:23:25.404Z,102181.08
2019-04-20T07:25:47.366Z,102179.23
2019-04-20T07:28:27.798Z,102182.06
2019-04-20T07:30:52.150Z,102173.98
2019-04-20T07:33:28.355Z,102175.48
2019-04-20T07:35:56.202Z,102172.59
2019-04-20T07:41:02.916Z,102168.30
2019-04-20T07:43:30.096Z,102167.82
2019-04-20T07:46:10.527Z,102180.14
2019-04-20T07:48:36.826Z,102177.28
2019-04-20T07:51:02.647Z,102163.56
2019-04-20T07:53:36.664Z,102166.59
2019-04-20T07:56:17.682Z,102170.22
2019-04-20T07:58:43.379Z,102176.35
2019-04-20T08:01:54.333Z,102171.97
2019-04-20T08:04:24.434Z,102159.76
2019-04-20T08:06:46.169Z,102167.76
2019-04-20T08:09:24.741Z,102162.58
2019-04-20T08:12:11.805Z,102169.63
2019-04-20T08:14:42.388Z,102156.39
2019-04-20T08:17:30.593Z,102153.22
2019-04-20T08:19:41.078Z,102172.02
2019-04-20T08:22:21.872Z,102174.38
2019-04-20T08:24:42.820Z,102165.17
2019-04-20T08:27:09.117Z,102166.48
2019-04-20T08:29:53.709Z,102162.64
2019-04-20T08:32:46.842Z,102160.17
2019-04-20T08:35:25.956Z,102155.30
2019-04-20T08:38:22.129Z,102145.22
2019-04-20T08:40:31.367Z,102155.91
2019-04-20T08:43:10.827Z,102159.83
2019-04-20T08:45:45.816Z,102152.58
2019-04-20T08:48:14.108Z,102154.51
2019-04-20T08:50:41.352Z,102147.72
2019-04-20T08:53:20.740Z,102156.38
2019-04-20T08:55:41.564Z,102147.00
2019-04-20T08:57:59.993Z,102147.84
2019-04-20T09:00:38.741Z,102143.33
2019-04-20T09:03:15.293Z,102141.83
2019-04-20T09:05:48.997Z,102143.30
2019-04-20T09:08:16.205Z,102141.83
2019-04-20T09:11:00.269Z,102134.86
2019-04-20T09:13:24.764Z,102123.81
2019-04-20T09:15:47.091Z,102131.81
2019-04-20T09:18:41.900Z,102134.89
2019-04-20T09:21:15.143Z,102131.97
2019-04-20T09:24:11.861Z,102131.27
2019-04-20T09:26:37.386Z,102124.87
2019-04-20T09:29:05.786Z,102134.73
2019-04-20T09:31:40.828Z,102126.23
2019-04-20T09:34:16.137Z,102122.31
2019-04-20T09:36:49.612Z,102122.25
2019-04-20T09:39:21.596Z,102124.96
2019-04-20T09:42:00.381Z,102124.50
2019-04-20T09:44:25.643Z,102119.00
2019-04-20T09:46:56.786Z,102127.27
2019-04-20T09:49:39.972Z,102125.55
2019-04-20T09:52:15.749Z,102110.55
2019-04-20T09:54:48.133Z,102104.21
2019-04-20T09:57:22.330Z,102098.55
2019-04-20T09:59:53.743Z,102101.34
2019-04-20T10:02:15.712Z,102108.19
2019-04-20T10:04:39.914Z,102103.45
2019-04-20T10:07:17.586Z,102091.03
2019-04-20T10:09:47.360Z,102090.19
2019-04-20T10:12:19.649Z,102088.44
2019-04-20T10:14:50.972Z,102084.09
2019-04-20T10:17:21.950Z,102086.62
2019-04-20T10:19:53.697Z,102072.39
2019-04-20T10:22:24.653Z,102078.84
2019-04-20T10:24:57.119Z,102083.23
2019-04-20T10:27:28.466Z,102077.33
2019-04-20T10:30:03.796Z,102078.45
2019-04-20T10:32:38.841Z,102081.52
2019-04-20T10:35:04.795Z,102071.64
2019-04-20T10:37:37.765Z,102076.62
2019-04-20T10:40:08.855Z,102070.98
2019-04-20T10:42:39.541Z,102075.40
2019-04-20T10:45:10.932Z,102069.06
2019-04-20T10:47:43.058Z,102066.39
2019-04-20T10:50:14.561Z,102074.42
2019-04-20T10:52:45.800Z,102069.88
2019-04-20T10:55:16.870Z,102066.40
2019-04-20T10:57:47.540Z,102069.16
2019-04-20T11:00:21.626Z,102063.80
2019-04-20T11:02:52.554Z,102063.43
2019-04-20T11:05:24.482Z,102064.81
2019-04-20T11:07:56.725Z,102060.95
2019-04-20T11:10:34.469Z,102068.65
2019-04-20T11:13:01.222Z,102062.25
2019-04-20T11:15:32.481Z,102053.42
2019-04-20T11:18:03.749Z,102052.67
2019-04-20T11:20:35.273Z,102039.84
2019-04-20T11:23:06.634Z,102033.13
2019-04-20T11:25:38.018Z,102036.07
2019-04-20T11:28:10.223Z,102035.19
2019-04-20T11:30:41.452Z,102038.12
2019-04-20T11:33:12.516Z,102038.67
2019-04-20T11:35:45.261Z,102036.20
2019-04-20T11:38:17.363Z,102036.39
2019-04-20T11:41:00.128Z,102032.15
2019-04-20T11:43:21.772Z,102033.55
2019-04-20T11:45:52.726Z,102032.55
2019-04-20T11:48:23.797Z,102029.33
2019-04-20T11:50:55.826Z,102028.25
2019-04-20T11:53:27.264Z,102018.34
2019-04-20T11:55:59.189Z,102018.03
2019-04-20T11:58:31.070Z,102026.68
2019-04-20T12:01:11.049Z,102028.81
2019-04-20T12:03:50.750Z,102018.44
2019-04-20T12:06:12.801Z,102009.82
2019-04-20T12:08:45.367Z,102014.18
2019-04-20T12:11:26.639Z,102019.17
2019-04-20T12:13:49.033Z,102011.20
2019-04-20T12:16:21.273Z,102003.50
2019-04-20T12:18:52.521Z,102007.63
2019-04-20T12:21:24.963Z,102005.72
2019-04-20T12:23:58.292Z,101997.47
2019-04-20T12:26:29.130Z,101996.07
2019-04-20T12:29:01.376Z,102004.55
2019-04-20T12:31:33.515Z,101995.07
2019-04-20T12:34:04.575Z,102010.97
2019-04-20T12:36:35.380Z,102006.00
2019-04-20T12:39:09.047Z,102007.27
2019-04-20T12:41:45.066Z,102005.92
2019-04-20T12:44:12.496Z,101995.38
2019-04-20T12:46:43.767Z,101992.02
2019-04-20T12:49:15.839Z,101999.23
2019-04-20T12:51:53.970Z,101993.84
2019-04-20T12:54:18.990Z,101989.48
2019-04-20T12:56:50.982Z,101986.59
2019-04-20T12:59:21.688Z,101988.11
2019-04-20T13:01:53.371Z,101985.84
2019-04-20T13:04:24.687Z,101991.01
2019-04-20T13:06:57.531Z,101988.57
2019-04-20T13:09:34.625Z,101976.28
2019-04-20T13:12:10.606Z,101976.25
2019-04-20T13:15:08.669Z,101978.77
2019-04-20T13:17:40.035Z,101973.56
2019-04-20T13:20:12.018Z,101971.38
2019-04-20T13:22:44.138Z,101975.03
2019-04-20T13:25:15.073Z,101965.73
2019-04-20T13:27:47.317Z,101970.23
2019-04-20T13:30:19.632Z,101970.83
2019-04-20T13:32:51.602Z,101969.04
2019-04-20T13:35:22.766Z,101970.80
2019-04-20T13:37:54.175Z,101964.58
2019-04-20T13:40:26.002Z,101964.51
2019-04-20T13:42:56.664Z,101963.50
2019-04-20T13:45:28.789Z,101971.36
2019-04-20T13:47:59.630Z,101957.97
2019-04-20T13:50:31.662Z,101953.42
2019-04-20T13:53:03.341Z,101957.09
2019-04-20T13:55:35.631Z,101954.20
2019-04-20T13:58:13.898Z,101957.92
2019-04-20T14:00:54.065Z,101957.70
2019-04-20T14:03:27.026Z,101953.02
2019-04-20T14:05:58.411Z,101956.02
2019-04-20T14:08:29.698Z,101951.90
2019-04-20T14:11:01.572Z,101954.64
2019-04-20T14:13:42.852Z,101961.20
2019-04-20T14:16:11.238Z,101956.27
2019-04-20T14:18:42.983Z,101952.55
2019-04-20T14:21:14.246Z,101955.64
2019-04-20T14:30:50.020Z,101959.78
2019-04-20T14:33:21.186Z,101948.78
2019-04-20T14:35:52.783Z,101953.36
2019-04-20T14:38:24.271Z,101945.34
2019-04-20T14:40:55.148Z,101947.93
2019-04-20T14:43:26.878Z,101947.47
2019-04-20T14:45:58.740Z,101939.64
2019-04-20T14:48:30.974Z,101945.27
2019-04-20T14:51:01.874Z,101948.12
2019-04-20T14:53:33.607Z,101953.83
2019-04-20T14:56:05.381Z,101946.00
2019-04-20T14:58:42.155Z,101940.47
2019-04-20T15:01:34.593Z,101947.02
2019-04-20T15:04:11.534Z,101952.08
2019-04-20T15:06:39.788Z,101938.97
2019-04-20T15:09:10.918Z,101939.63
2019-04-20T15:11:44.285Z,101933.59
2019-04-20T15:14:14.590Z,101928.27
2019-04-20T15:16:46.757Z,101933.97
2019-04-20T15:19:19.172Z,101927.61
2019-04-20T15:22:03.260Z,101927.91
2019-04-20T15:24:35.532Z,101930.36
2019-04-20T15:27:06.773Z,101935.63
2019-04-20T15:29:38.240Z,101936.91
2019-04-20T15:32:10.210Z,101931.52
2019-04-20T15:34:41.043Z,101935.56
2019-04-20T15:37:12.102Z,101932.50
2019-04-20T15:39:43.263Z,101934.59
2019-04-20T15:42:15.043Z,101932.39
2019-04-20T15:44:46.995Z,101930.09
2019-04-20T15:47:17.987Z,101939.22
2019-04-20T15:49:49.788Z,101949.83
2019-04-20T15:52:27.506Z,101941.02
2019-04-20T15:54:53.706Z,101940.34
2019-04-20T15:57:27.680Z,101948.65
2019-04-20T15:59:58.309Z,101946.09
2019-04-20T16:02:41.235Z,101950.38
2019-04-20T16:05:14.420Z,101951.19
2019-04-20T16:07:52.573Z,101949.09
2019-04-20T16:10:19.236Z,101947.26
2019-04-20T16:13:04.810Z,101951.13
2019-04-20T16:15:27.308Z,101950.80
2019-04-20T16:17:58.888Z,101951.73
2019-04-20T16:20:43.536Z,101951.37
2019-04-20T16:23:02.840Z,101948.58
2019-04-20T16:25:53.350Z,101955.75
2019-04-20T16:28:25.444Z,101960.81
2019-04-20T16:30:59.366Z,101963.73
2019-04-20T16:33:30.749Z,101964.44
2019-04-20T16:36:04.704Z,101957.28
2019-04-20T16:38:35.419Z,101966.06
2019-04-20T16:41:06.707Z,101967.41
2019-04-20T16:43:42.540Z,101972.27
2019-04-20T16:46:10.973Z,101973.56
2019-04-20T16:48:42.210Z,101976.11
2019-04-20T16:51:13.384Z,101973.11
2019-04-20T16:53:45.651Z,101977.44
2019-04-20T16:56:19.016Z,101977.32
2019-04-20T16:58:54.625Z,101977.95
2019-04-20T17:01:23.630Z,101978.58
2019-04-20T17:04:06.527Z,101985.04
2019-04-20T17:06:27.774Z,101987.73
2019-04-20T17:08:58.838Z,101992.00
2019-04-20T17:11:30.132Z,101994.38
2019-04-20T17:14:02.130Z,101996.30
2019-04-20T17:16:33.698Z,101999.64
2019-04-20T17:19:05.953Z,102002.02
2019-04-20T17:21:37.331Z,102001.02
2019-04-20T17:24:09.081Z,102005.44
2019-04-20T17:26:47.590Z,101997.41
2019-04-20T17:29:23.939Z,102007.50
2019-04-20T17:31:59.501Z,102005.08
2019-04-20T17:34:58.377Z,102009.87
2019-04-20T17:37:15.000Z,102010.25
2019-04-20T17:40:06.471Z,102010.42
2019-04-20T17:42:33.305Z,102008.70
2019-04-20T17:45:00.773Z,102008.10
2019-04-20T17:47:43.186Z,102006.95
2019-04-20T17:50:16.688Z,102006.88
2019-04-20T17:52:49.575Z,102012.56
2019-04-20T17:55:03.420Z,102008.78
2019-04-20T17:57:35.256Z,102013.43
2019-04-20T18:00:13.788Z,102020.16
2019-04-20T18:03:04.307Z,102013.27
2019-04-20T18:05:57.067Z,102025.55
2019-04-20T18:08:31.123Z,102016.57
2019-04-20T18:10:53.021Z,102021.52
2019-04-20T18:13:20.291Z,102022.03
2019-04-20T18:16:05.226Z,102021.52
2019-04-20T18:18:39.832Z,102021.91
2019-04-20T18:21:01.186Z,102021.16
2019-04-20T18:23:36.355Z,102023.20
2019-04-20T18:26:27.246Z,102013.53
2019-04-20T18:29:03.670Z,102018.29
2019-04-20T18:31:21.863Z,102019.60
2019-04-20T18:33:54.244Z,102014.12
2019-04-20T18:36:32.171Z,102020.16
2019-04-20T18:39:02.669Z,102021.62
2019-04-20T18:41:38.515Z,102019.64
2019-04-20T18:44:02.699Z,102020.69
2019-04-20T18:46:57.320Z,102017.57
2019-04-20T18:49:18.605Z,102011.65
2019-04-20T18:51:39.824Z,102012.38
2019-04-20T18:54:16.256Z,102014.64
2019-04-20T18:56:47.537Z,102017.64
2019-04-20T18:59:16.735Z,102016.22
2019-04-20T19:01:48.799Z,102011.50
2019-04-20T19:04:19.839Z,102007.89
2019-04-20T19:06:52.086Z,102019.73
2019-04-20T19:09:28.101Z,102013.48
2019-04-20T19:12:00.835Z,102012.63
2019-04-20T19:14:49.238Z,102017.77
2019-04-20T19:17:45.251Z,102014.33
2019-04-20T19:20:29.035Z,102009.86
2019-04-20T19:23:00.215Z,102003.66
2019-04-20T19:25:35.331Z,102003.64
2019-04-20T19:28:05.122Z,102003.02
2019-04-20T19:30:46.089Z,102003.10
2019-04-20T19:33:22.684Z,102004.86
2019-04-20T19:35:52.235Z,102009.07
2019-04-20T19:38:20.710Z,102008.53
2019-04-20T19:40:56.505Z,102007.10
2019-04-20T19:43:25.339Z,102003.31
2019-04-20T19:46:29.740Z,102001.94
2019-04-20T19:48:39.661Z,102000.34
2019-04-20T19:51:21.563Z,102000.30
2019-04-20T19:53:48.824Z,102002.73
2019-04-20T19:56:16.986Z,101998.61
2019-04-20T19:58:52.593Z,102007.34
2019-04-20T20:01:09.301Z,101999.34
2019-04-20T20:03:41.683Z,102001.34
2019-04-20T20:06:23.735Z,102002.80
2019-04-20T20:08:53.170Z,102005.05
2019-04-20T20:11:26.456Z,102003.77
2019-04-20T20:13:53.235Z,102006.64
2019-04-20T20:16:32.574Z,102004.30
2019-04-20T20:19:07.381Z,102005.17
2019-04-20T20:21:46.778Z,102006.70
2019-04-20T20:24:01.988Z,102004.86
2019-04-20T20:26:38.701Z,102003.59
2019-04-20T20:29:17.138Z,102001.47
2019-04-20T20:31:56.693Z,101994.26
2019-04-20T20:34:22.141Z,102003.11
2019-04-20T20:36:57.140Z,101998.15
2019-04-20T20:39:30.600Z,101993.92
2019-04-20T20:42:14.106Z,102000.52
2019-04-20T20:44:41.079Z,102002.67
2019-04-20T20:47:31.670Z,101998.49
2019-04-20T20:50:03.255Z,102001.12
2019-04-20T20:52:27.695Z,102001.48
2019-04-20T20:54:55.830Z,101992.48
2019-04-20T20:57:24.788Z,101994.16
2019-04-20T21:00:00.468Z,101988.60
2019-04-20T21:02:40.175Z,101989.75
2019-04-20T21:04:59.610Z,101993.38
2019-04-20T21:07:30.955Z,101989.93
2019-04-20T21:10:01.950Z,101990.22
2019-04-20T21:12:37.330Z,101985.73
2019-04-20T21:15:13.425Z,101993.11
2019-04-20T21:18:05.545Z,101987.02
2019-04-20T21:20:27.575Z,101985.55
2019-04-20T21:23:02.671Z,101993.16
2019-04-20T21:25:19.156Z,101985.14
2019-04-20T21:27:50.879Z,101989.31
2019-04-20T21:30:30.008Z,101991.86
2019-04-20T21:33:00.004Z,101991.83
2019-04-20T21:35:31.310Z,101991.45
2019-04-20T21:38:06.102Z,101992.14
2019-04-20T21:40:36.270Z,101988.63
2019-04-20T21:43:07.255Z,101987.75
2019-04-20T21:45:38.070Z,101983.70
2019-04-20T21:48:23.148Z,101996.40
2019-04-20T21:50:58.287Z,101985.70
2019-04-20T21:53:18.292Z,101992.91
2019-04-20T21:55:46.016Z,101986.41
2019-04-20T21:58:18.417Z,101986.09
2019-04-20T22:01:07.124Z,101986.28
2019-04-20T22:03:27.516Z,101981.42
2019-04-20T22:06:04.860Z,101985.08
2019-04-20T22:08:39.403Z,101982.60
2019-04-20T22:11:09.567Z,101981.20
2019-04-20T22:13:43.619Z,101979.36
2019-04-20T22:16:14.742Z,101970.72
2019-04-20T22:18:53.025Z,101973.69
2019-04-20T22:21:25.468Z,101966.28
2019-04-20T22:24:03.213Z,101964.17
2019-04-20T22:26:32.165Z,101961.72
2019-04-20T22:28:56.308Z,101964.86
2019-04-20T22:31:27.357Z,101962.27
2019-04-20T22:34:00.833Z,101963.05
2019-04-20T22:36:36.918Z,101960.32
2019-04-20T22:39:09.333Z,101956.05
2019-04-20T22:41:46.653Z,101955.79
2019-04-20T22:44:20.290Z,101967.53
2019-04-20T22:46:47.686Z,101956.67
2019-04-20T22:49:35.975Z,101962.59
2019-04-20T22:52:00.597Z,101964.41
2019-04-20T22:54:39.511Z,101962.05
2019-04-20T22:57:05.982Z,101959.72
2019-04-20T22:59:39.820Z,101956.66
2019-04-20T23:02:03.898Z,101959.09
2019-04-20T23:04:34.959Z,101956.20
2019-04-20T23:07:05.839Z,101958.95
2019-04-20T23:09:43.838Z,101956.00
2019-04-20T23:12:15.747Z,101956.95
2019-04-20T23:14:42.454Z,101949.78
2019-04-20T23:17:18.364Z,101950.56
2019-04-20T23:19:52.109Z,101948.91
2019-04-20T23:22:19.224Z,101952.45
2019-04-20T23:24:51.174Z,101953.62
2019-04-20T23:27:26.307Z,101956.20
2019-04-20T23:29:55.244Z,101949.26
2019-04-20T23:32:29.990Z,101950.86
2019-04-20T23:35:05.909Z,101943.61
2019-04-20T23:37:33.823Z,101946.77
2019-04-20T23:40:06.327Z,101944.78
2019-04-20T23:42:44.140Z,101943.11
2019-04-20T23:45:17.400Z,101943.28
2019-04-20T23:47:57.871Z,101942.91
2019-04-20T23:50:41.000Z,101944.08
2019-04-20T23:53:14.097Z,101943.69
2019-04-20T23:55:31.805Z,101948.57
2019-04-20T23:58:06.534Z,101943.42
